createdAt,value
2022-09-01T00:00:04.921Z,13.55
2022-09-01T00:02:31.425Z,13.49
2022-09-01T00:04:58.784Z,13.51
2022-09-01T00:07:27.271Z,13.43
2022-09-01T00:09:53.809Z,13.42
2022-09-01T00:12:22.699Z,13.45
2022-09-01T00:14:49.777Z,13.43
2022-09-01T00:17:16.328Z,13.44
2022-09-01T00:19:42.756Z,13.32
2022-09-01T00:22:09.284Z,13.41
2022-09-01T00:24:36.274Z,13.41
2022-09-01T00:27:03.306Z,13.40
2022-09-01T00:29:33.399Z,13.39
2022-09-01T00:31:59.957Z,13.24
2022-09-01T00:34:26.437Z,13.30
2022-09-01T00:36:52.910Z,13.17
2022-09-01T00:39:19.400Z,13.29
2022-09-01T00:41:47.258Z,13.21
2022-09-01T00:44:18.976Z,13.26
2022-09-01T00:46:52.355Z,13.25
2022-09-01T00:49:35.232Z,13.23
2022-09-01T00:52:20.629Z,13.11
2022-09-01T00:54:58.168Z,13.15
2022-09-01T00:57:25.454Z,13.08
2022-09-01T01:00:14.811Z,12.92
2022-09-01T01:02:42.492Z,13.09
2022-09-01T01:05:12.601Z,13.06
2022-09-01T01:07:45.871Z,13.02
2022-09-01T01:10:17.044Z,12.91
2022-09-01T01:12:44.803Z,12.92
2022-09-01T01:15:13.288Z,12.92
2022-09-01T01:17:40.632Z,12.88
2022-09-01T01:20:28.269Z,12.69
2022-09-01T01:23:12.483Z,12.82
2022-09-01T01:25:49.439Z,12.77
2022-09-01T01:28:18.597Z,12.74
2022-09-01T01:30:52.384Z,12.71
2022-09-01T01:33:25.586Z,12.63
2022-09-01T01:35:55.292Z,12.61
2022-09-01T01:38:22.940Z,12.58
2022-09-01T01:40:51.663Z,12.59
2022-09-01T01:43:23.035Z,12.55
2022-09-01T01:45:52.173Z,12.54
2022-09-01T01:48:23.906Z,12.50
2022-09-01T01:50:52.606Z,12.37
2022-09-01T01:53:19.544Z,12.38
2022-09-01T01:55:50.302Z,12.43
2022-09-01T01:58:19.892Z,12.41
2022-09-01T02:00:51.704Z,12.29
2022-09-01T02:03:21.823Z,12.37
2022-09-01T02:05:50.580Z,12.32
2022-09-01T02:08:21.001Z,12.32
2022-09-01T02:10:51.043Z,12.11
2022-09-01T02:13:20.914Z,12.28
2022-09-01T02:15:53.649Z,12.26
2022-09-01T02:18:31.169Z,12.25
2022-09-01T02:20:58.917Z,12.19
2022-09-01T02:23:25.628Z,12.12
2022-09-01T02:26:15.263Z,12.03
2022-09-01T02:28:42.635Z,12.12
2022-09-01T02:31:11.229Z,12.15
2022-09-01T02:33:39.861Z,12.05
2022-09-01T02:36:09.951Z,12.06
2022-09-01T02:38:36.722Z,12.04
2022-09-01T02:41:05.511Z,12.04
2022-09-01T02:43:32.063Z,12.02
2022-09-01T02:46:00.758Z,11.96
2022-09-01T02:48:35.734Z,11.87
2022-09-01T02:51:09.018Z,12.02
2022-09-01T02:53:36.549Z,12.00
2022-09-01T02:56:09.461Z,11.90
2022-09-01T02:58:45.769Z,11.90
2022-09-01T03:01:17.176Z,11.91
2022-09-01T03:03:43.827Z,11.95
2022-09-01T03:06:11.233Z,11.88
2022-09-01T03:08:39.568Z,11.91
2022-09-01T03:11:13.197Z,11.91
2022-09-01T03:13:41.374Z,11.89
2022-09-01T03:16:08.793Z,11.83
2022-09-01T03:18:35.427Z,11.64
2022-09-01T03:21:02.461Z,11.67
2022-09-01T03:23:31.380Z,11.81
2022-09-01T03:25:58.107Z,11.79
2022-09-01T03:28:26.995Z,11.78
2022-09-01T03:30:56.847Z,11.73
2022-09-01T03:33:25.900Z,11.75
2022-09-01T03:35:53.375Z,11.72
2022-09-01T03:38:24.554Z,11.73
2022-09-01T03:40:58.985Z,11.67
2022-09-01T03:43:27.597Z,11.48
2022-09-01T03:46:01.815Z,11.60
2022-09-01T03:48:30.031Z,11.64
2022-09-01T03:51:03.013Z,11.59
2022-09-01T03:53:34.203Z,11.71
2022-09-01T03:56:01.603Z,11.62
2022-09-01T03:58:28.225Z,11.60
2022-09-01T04:00:58.364Z,11.69
2022-09-01T04:03:29.033Z,11.69
2022-09-01T04:05:59.563Z,11.60
2022-09-01T04:08:32.592Z,11.68
2022-09-01T04:11:05.463Z,11.54
2022-09-01T04:13:35.866Z,11.68
2022-09-01T04:16:02.816Z,11.77
2022-09-01T04:18:30.551Z,11.68
2022-09-01T04:20:59.616Z,11.64
2022-09-01T04:23:33.521Z,11.59
2022-09-01T04:26:09.991Z,11.59
2022-09-01T04:28:48.262Z,11.60
2022-09-01T04:31:21.156Z,11.51
2022-09-01T04:33:52.644Z,11.57
2022-09-01T04:36:27.452Z,11.56
2022-09-01T04:39:00.618Z,11.56
2022-09-01T04:41:31.871Z,11.53
2022-09-01T04:44:02.389Z,11.53
2022-09-01T04:46:31.237Z,11.42
2022-09-01T04:48:58.011Z,11.37
2022-09-01T04:51:27.928Z,11.53
2022-09-01T04:53:57.679Z,11.41
2022-09-01T04:56:26.658Z,11.54
2022-09-01T04:58:56.447Z,11.52
2022-09-01T05:01:27.500Z,11.54
2022-09-01T05:04:01.323Z,11.28
2022-09-01T05:06:29.869Z,11.56
2022-09-01T05:08:57.722Z,11.46
2022-09-01T05:11:24.186Z,11.51
2022-09-01T05:13:56.088Z,11.43
2022-09-01T05:16:25.427Z,11.37
2022-09-01T05:18:55.748Z,11.60
2022-09-01T05:21:28.219Z,11.49
2022-09-01T05:23:55.312Z,11.53
2022-09-01T05:26:26.990Z,11.73
2022-09-01T05:28:57.053Z,11.76
2022-09-01T05:31:25.730Z,11.80
2022-09-01T05:33:52.145Z,11.67
2022-09-01T05:36:21.488Z,11.90
2022-09-01T05:38:49.142Z,11.93
2022-09-01T05:41:17.594Z,11.99
2022-09-01T05:43:48.214Z,11.95
2022-09-01T05:46:19.030Z,12.06
2022-09-01T05:48:47.196Z,12.11
2022-09-01T05:51:42.617Z,12.29
2022-09-01T05:54:08.056Z,12.44
2022-09-01T05:56:43.299Z,12.59
2022-09-01T05:59:26.866Z,12.58
2022-09-01T06:01:54.787Z,12.86
2022-09-01T06:04:22.962Z,12.97
2022-09-01T06:07:07.847Z,13.05
2022-09-01T06:09:40.835Z,13.20
2022-09-01T06:12:17.496Z,13.31
2022-09-01T06:14:46.313Z,13.37
2022-09-01T06:17:16.382Z,13.53
2022-09-01T06:19:43.776Z,13.63
2022-09-01T06:22:10.658Z,13.66
2022-09-01T06:24:40.056Z,13.85
2022-09-01T06:27:09.868Z,13.96
2022-09-01T06:29:39.989Z,14.03
2022-09-01T06:32:12.697Z,14.11
2022-09-01T06:34:44.883Z,14.09
2022-09-01T06:37:13.235Z,14.37
2022-09-01T06:39:39.755Z,14.48
2022-09-01T06:42:06.714Z,14.59
2022-09-01T06:44:33.540Z,14.58
2022-09-01T06:47:00.389Z,14.73
2022-09-01T06:49:33.033Z,14.84
2022-09-01T06:52:03.824Z,14.98
2022-09-01T06:54:34.024Z,15.27
2022-09-01T06:59:50.272Z,15.77
2022-09-01T07:02:19.882Z,15.99
2022-09-01T07:04:51.918Z,16.09
2022-09-01T07:10:18.517Z,16.37
2022-09-01T07:18:30.733Z,16.80
2022-09-01T07:21:07.954Z,16.88
2022-09-01T07:24:07.771Z,17.17
2022-09-01T07:26:33.902Z,17.30
2022-09-01T07:29:01.530Z,17.30
2022-09-01T07:39:51.944Z,17.83
2022-09-01T07:41:43.315Z,15.57
2022-09-01T07:45:27.364Z,18.05
2022-09-01T07:47:55.054Z,18.43
2022-09-01T07:50:39.865Z,18.59
2022-09-01T07:53:12.515Z,18.95
2022-09-01T07:55:43.825Z,19.19
2022-09-01T07:58:11.729Z,19.15
2022-09-01T08:00:39.965Z,19.49
2022-09-01T08:03:06.925Z,19.61
2022-09-01T08:05:33.950Z,19.58
2022-09-01T08:08:01.166Z,19.70
2022-09-01T08:10:28.353Z,19.80
2022-09-01T08:12:56.556Z,19.85
2022-09-01T08:15:41.850Z,19.98
2022-09-01T08:18:17.838Z,20.05
2022-09-01T08:20:45.744Z,20.14
2022-09-01T08:23:15.687Z,20.09
2022-09-01T08:25:44.239Z,20.16
2022-09-01T08:28:12.705Z,20.40
2022-09-01T08:30:41.317Z,20.48
2022-09-01T08:33:11.676Z,20.42
2022-09-01T08:35:41.399Z,20.65
2022-09-01T08:38:10.232Z,20.64
2022-09-01T08:40:37.776Z,20.81
2022-09-01T08:43:20.513Z,20.83
2022-09-01T08:45:56.329Z,21.00
2022-09-01T08:49:18.427Z,21.15
2022-09-01T08:51:52.788Z,21.05
2022-09-01T08:54:42.603Z,21.41
2022-09-01T08:57:24.129Z,21.50
2022-09-01T08:59:52.217Z,21.55
2022-09-01T09:02:57.166Z,21.72
2022-09-01T09:05:29.734Z,21.82
2022-09-01T09:08:33.235Z,21.94
2022-09-01T09:11:28.237Z,22.13
2022-09-01T09:14:13.695Z,22.31
2022-09-01T09:16:43.124Z,22.47
2022-09-01T09:19:30.098Z,22.77
2022-09-01T09:21:59.031Z,23.04
2022-09-01T09:24:47.624Z,23.44
2022-09-01T09:27:20.863Z,23.84
2022-09-01T09:29:50.909Z,24.29
2022-09-01T09:32:39.449Z,24.66
2022-09-01T09:35:36.745Z,25.31
2022-09-01T09:38:29.224Z,25.70
2022-09-01T09:44:05.579Z,26.44
2022-09-01T09:46:32.082Z,26.58
2022-09-01T09:49:34.654Z,26.82
2022-09-01T09:52:03.132Z,26.95
2022-09-01T09:54:33.247Z,27.14
2022-09-01T09:57:06.352Z,27.49
2022-09-01T09:59:57.745Z,27.59
2022-09-01T10:02:32.692Z,27.72
2022-09-01T10:05:21.248Z,27.81
2022-09-01T10:07:49.261Z,27.90
2022-09-01T10:10:38.552Z,27.99
2022-09-01T10:13:12.531Z,28.32
2022-09-01T10:15:43.781Z,28.40
2022-09-01T10:18:29.051Z,28.48
2022-09-01T10:21:01.735Z,28.96
2022-09-01T10:23:31.188Z,28.98
2022-09-01T10:26:01.002Z,29.70
2022-09-01T10:28:30.077Z,29.95
2022-09-01T10:30:59.043Z,29.82
2022-09-01T10:33:25.886Z,29.93
2022-09-01T10:35:53.718Z,30.20
2022-09-01T10:38:30.665Z,30.20
2022-09-01T10:41:09.220Z,30.49
2022-09-01T10:43:45.632Z,30.66
2022-09-01T10:46:38.729Z,30.72
2022-09-01T10:49:46.360Z,30.79
2022-09-01T10:52:41.812Z,30.67
2022-09-01T10:55:24.184Z,30.24
2022-09-01T10:57:55.821Z,30.09
2022-09-01T11:00:36.154Z,30.06
2022-09-01T11:06:17.735Z,30.21
2022-09-01T11:08:58.255Z,30.24
2022-09-01T11:11:47.193Z,30.18
2022-09-01T11:14:23.648Z,29.97
2022-09-01T11:17:14.232Z,29.87
2022-09-01T11:20:16.767Z,29.64
2022-09-01T11:22:58.984Z,29.30
2022-09-01T11:25:44.776Z,29.45
2022-09-01T11:28:23.260Z,29.33
2022-09-01T11:30:56.193Z,29.35
2022-09-01T11:33:53.344Z,29.63
2022-09-01T11:36:48.310Z,29.78
2022-09-01T11:39:30.160Z,30.00
2022-09-01T11:42:11.557Z,30.29
2022-09-01T11:45:00.498Z,30.34
2022-09-01T11:47:31.673Z,30.61
2022-09-01T11:50:03.162Z,30.75
2022-09-01T11:52:34.280Z,31.00
2022-09-01T11:55:00.880Z,31.01
2022-09-01T11:57:37.276Z,31.23
2022-09-01T12:00:10.415Z,31.46
2022-09-01T12:02:49.296Z,31.53
2022-09-01T12:05:38.721Z,31.75
2022-09-01T12:08:18.758Z,31.73
2022-09-01T12:10:50.881Z,31.64
2022-09-01T12:13:23.810Z,31.49
2022-09-01T12:16:19.192Z,31.22
2022-09-01T12:18:51.463Z,30.80
2022-09-01T12:21:26.222Z,30.48
2022-09-01T12:23:53.234Z,30.26
2022-09-01T12:26:26.768Z,30.09
2022-09-01T12:28:54.686Z,30.10
2022-09-01T12:31:26.268Z,30.16
2022-09-01T12:33:55.935Z,30.23
2022-09-01T12:36:27.133Z,30.97
2022-09-01T12:39:15.341Z,30.81
2022-09-01T12:41:42.001Z,30.92
2022-09-01T12:44:37.533Z,31.21
2022-09-01T12:47:10.428Z,31.17
2022-09-01T12:49:47.973Z,31.28
2022-09-01T12:52:20.442Z,30.97
2022-09-01T12:54:51.500Z,30.64
2022-09-01T12:57:34.300Z,30.46
2022-09-01T13:00:18.088Z,30.16
2022-09-01T13:03:05.522Z,29.90
2022-09-01T13:05:40.954Z,29.76
2022-09-01T13:08:11.759Z,29.81
2022-09-01T13:10:43.228Z,30.16
2022-09-01T13:13:12.217Z,29.95
2022-09-01T13:15:42.826Z,30.16
2022-09-01T13:18:10.745Z,30.24
2022-09-01T13:20:37.980Z,30.42
2022-09-01T13:23:04.416Z,30.82
2022-09-01T13:25:30.936Z,30.89
2022-09-01T13:27:57.981Z,31.13
2022-09-01T13:30:28.374Z,31.29
2022-09-01T13:35:41.419Z,31.33
2022-09-01T13:38:07.896Z,31.35
2022-09-01T13:40:34.742Z,31.14
2022-09-01T13:43:01.998Z,30.75
2022-09-01T13:45:28.525Z,30.30
2022-09-01T13:53:28.779Z,29.14
2022-09-01T13:55:55.195Z,28.90
2022-09-01T13:58:21.664Z,28.89
2022-09-01T14:00:48.272Z,28.81
2022-09-01T14:03:19.002Z,28.70
2022-09-01T14:05:49.701Z,28.71
2022-09-01T14:08:19.508Z,28.62
2022-09-01T14:10:50.803Z,28.33
2022-09-01T14:13:19.531Z,28.25
2022-09-01T14:15:47.142Z,28.08
2022-09-01T14:18:15.615Z,27.90
2022-09-01T14:20:45.938Z,27.76
2022-09-01T14:23:13.810Z,27.62
2022-09-01T14:25:51.983Z,27.65
2022-09-01T14:28:21.431Z,27.63
2022-09-01T14:33:16.686Z,27.80
2022-09-01T14:35:47.177Z,28.06
2022-09-01T14:38:14.838Z,27.97
2022-09-01T14:40:43.274Z,28.29
2022-09-01T14:43:14.027Z,28.53
2022-09-01T14:45:44.617Z,28.79
2022-09-01T14:48:11.661Z,29.04
2022-09-01T14:50:42.350Z,29.21
2022-09-01T14:53:09.922Z,29.54
2022-09-01T14:55:36.642Z,29.70
2022-09-01T14:58:03.644Z,29.79
2022-09-01T15:00:31.621Z,29.78
2022-09-01T15:02:58.407Z,29.91
2022-09-01T15:05:25.414Z,29.84
2022-09-01T15:07:52.462Z,29.76
2022-09-01T15:10:24.823Z,29.61
2022-09-01T15:12:54.049Z,29.25
2022-09-01T15:15:20.551Z,28.90
2022-09-01T15:17:47.111Z,28.47
2022-09-01T15:20:31.851Z,28.08
2022-09-01T15:22:58.680Z,27.57
2022-09-01T15:25:25.561Z,27.29
2022-09-01T15:27:52.740Z,27.29
2022-09-01T15:30:22.370Z,27.14
2022-09-01T15:32:52.598Z,27.17
2022-09-01T15:35:20.337Z,27.34
2022-09-01T15:37:51.744Z,27.58
2022-09-01T15:40:20.340Z,27.79
2022-09-01T15:42:47.168Z,28.03
2022-09-01T15:45:18.077Z,28.27
2022-09-01T15:47:45.966Z,28.46
2022-09-01T15:50:21.205Z,28.70
2022-09-01T15:52:55.212Z,28.91
2022-09-01T15:55:25.554Z,28.95
2022-09-01T15:57:54.195Z,28.86
2022-09-01T16:00:22.704Z,28.70
2022-09-01T16:02:49.243Z,28.51
2022-09-01T16:05:16.050Z,28.17
2022-09-01T16:07:42.491Z,27.80
2022-09-01T16:10:11.943Z,27.29
2022-09-01T16:12:43.891Z,26.96
2022-09-01T16:15:12.957Z,26.60
2022-09-01T16:18:03.810Z,26.36
2022-09-01T16:20:52.934Z,26.17
2022-09-01T16:23:22.055Z,25.93
2022-09-01T16:25:49.191Z,25.82
2022-09-01T16:28:35.900Z,25.93
2022-09-01T16:31:13.396Z,25.97
2022-09-01T16:33:47.339Z,25.99
2022-09-01T16:36:26.076Z,26.13
2022-09-01T16:39:07.277Z,26.23
2022-09-01T16:42:07.715Z,26.40
2022-09-01T16:44:55.529Z,26.44
2022-09-01T16:47:49.809Z,26.56
2022-09-01T16:50:26.318Z,26.51
2022-09-01T16:53:16.941Z,26.50
2022-09-01T16:56:11.941Z,26.50
2022-09-01T16:58:44.523Z,26.41
2022-09-01T17:01:26.266Z,26.40
2022-09-01T17:04:14.730Z,26.39
2022-09-01T17:06:49.984Z,26.25
2022-09-01T17:09:22.261Z,26.09
2022-09-01T17:11:53.917Z,25.87
2022-09-01T17:14:31.435Z,25.55
2022-09-01T17:17:11.781Z,25.37
2022-09-01T17:19:44.201Z,25.01
2022-09-01T17:22:14.650Z,24.64
2022-09-01T17:24:54.642Z,24.26
2022-09-01T17:27:31.944Z,24.32
2022-09-01T17:29:58.782Z,23.69
2022-09-01T17:32:48.111Z,23.45
2022-09-01T17:35:37.198Z,23.22
2022-09-01T17:38:20.464Z,22.94
2022-09-01T17:41:16.500Z,22.65
2022-09-01T17:44:07.029Z,22.56
2022-09-01T17:46:39.343Z,22.39
2022-09-01T17:49:21.063Z,22.22
2022-09-01T17:52:19.016Z,21.95
2022-09-01T17:55:00.116Z,21.83
2022-09-01T17:57:47.491Z,21.44
2022-09-01T18:00:24.724Z,21.44
2022-09-01T18:02:51.361Z,21.25
2022-09-01T18:05:24.416Z,21.07
2022-09-01T18:08:30.381Z,21.00
2022-09-01T18:11:19.172Z,20.81
2022-09-01T18:14:13.624Z,20.64
2022-09-01T18:17:22.562Z,20.48
2022-09-01T18:20:16.964Z,20.26
2022-09-01T18:23:04.831Z,20.09
2022-09-01T18:25:44.849Z,19.94
2022-09-01T18:28:11.312Z,19.79
2022-09-01T18:30:52.601Z,19.50
2022-09-01T18:33:27.639Z,19.51
2022-09-01T18:36:25.793Z,19.42
2022-09-01T18:39:03.861Z,19.25
2022-09-01T18:41:42.516Z,19.15
2022-09-01T18:44:26.564Z,19.03
2022-09-01T18:47:07.709Z,18.95
2022-09-01T18:49:39.571Z,18.71
2022-09-01T18:52:17.650Z,18.75
2022-09-01T18:54:57.824Z,18.68
2022-09-01T18:57:33.252Z,18.56
2022-09-01T19:00:20.893Z,18.52
2022-09-01T19:03:31.005Z,18.45
2022-09-01T19:06:28.341Z,18.33
2022-09-01T19:09:20.804Z,18.21
2022-09-01T19:12:07.919Z,18.11
2022-09-01T19:14:57.865Z,18.06
2022-09-01T19:17:43.141Z,17.97
2022-09-01T19:20:12.471Z,17.86
2022-09-01T19:22:44.922Z,17.81
2022-09-01T19:25:36.610Z,17.72
2022-09-01T19:28:25.181Z,17.67
2022-09-01T19:31:03.725Z,17.57
2022-09-01T19:33:37.697Z,17.50
2022-09-01T19:36:09.394Z,17.44
2022-09-01T19:38:37.262Z,17.34
2022-09-01T19:41:14.276Z,17.30
2022-09-01T19:43:42.933Z,17.23
2022-09-01T19:46:20.500Z,17.06
2022-09-01T19:49:24.833Z,17.12
2022-09-01T19:51:58.594Z,17.02
2022-09-01T19:54:36.642Z,16.96
2022-09-01T19:57:21.032Z,16.90
2022-09-01T19:59:55.839Z,16.84
2022-09-01T20:02:29.787Z,16.61
2022-09-01T20:05:05.568Z,16.67
2022-09-01T20:07:53.921Z,16.66
2022-09-01T20:10:37.644Z,16.58
2022-09-01T20:13:22.230Z,16.52
2022-09-01T20:16:09.162Z,16.32
2022-09-01T20:18:48.938Z,16.32
2022-09-01T20:21:20.858Z,16.25
2022-09-01T20:24:12.465Z,16.22
2022-09-01T20:27:03.007Z,16.14
2022-09-01T20:29:49.836Z,16.09
2022-09-01T20:32:26.422Z,15.88
2022-09-01T20:34:58.783Z,15.95
2022-09-01T20:37:39.732Z,15.91
2022-09-01T20:40:11.987Z,15.83
2022-09-01T20:43:02.729Z,15.78
2022-09-01T20:45:30.298Z,15.69
2022-09-01T20:48:02.988Z,15.68
2022-09-01T20:51:02.715Z,15.59
2022-09-01T20:53:50.890Z,15.61
2022-09-01T20:56:27.373Z,15.52
2022-09-01T20:59:17.681Z,15.53
2022-09-01T21:01:44.267Z,15.57
2022-09-01T21:04:41.145Z,15.46
2022-09-01T21:07:19.227Z,15.39
2022-09-01T21:09:55.641Z,15.26
2022-09-01T21:12:27.829Z,15.30
2022-09-01T21:15:21.346Z,15.26
2022-09-01T21:17:54.059Z,15.21
2022-09-01T21:20:51.579Z,15.17
2022-09-01T21:23:20.173Z,15.03
2022-09-01T21:25:48.580Z,15.02
2022-09-01T21:28:19.970Z,14.91
2022-09-01T21:30:50.776Z,14.91
2022-09-01T21:33:17.447Z,14.73
2022-09-01T21:35:44.051Z,14.83
2022-09-01T21:38:10.500Z,14.60
2022-09-01T21:40:37.708Z,14.72
2022-09-01T21:43:09.084Z,14.68
2022-09-01T21:45:37.821Z,14.56
2022-09-01T21:48:07.339Z,14.58
2022-09-01T21:50:34.225Z,14.56
2022-09-01T21:53:00.925Z,14.53
2022-09-01T21:55:28.524Z,14.49
2022-09-01T21:57:55.439Z,14.47
2022-09-01T22:00:25.124Z,14.44
2022-09-01T22:02:52.452Z,14.38
2022-09-01T22:05:19.134Z,14.36
2022-09-01T22:07:46.786Z,14.07
2022-09-01T22:10:20.917Z,14.34
2022-09-01T22:12:49.682Z,14.29
2022-09-01T22:15:18.867Z,14.26
2022-09-01T22:17:46.832Z,14.16
2022-09-01T22:20:17.008Z,14.16
2022-09-01T22:22:43.843Z,14.15
2022-09-01T22:25:14.229Z,14.12
2022-09-01T22:27:40.791Z,14.23
2022-09-01T22:30:09.398Z,14.07
2022-09-01T22:32:37.856Z,14.04
2022-09-01T22:35:10.266Z,13.95
2022-09-01T22:37:37.879Z,14.00
2022-09-01T22:40:05.708Z,13.95
2022-09-01T22:42:33.034Z,13.82
2022-09-01T22:44:59.614Z,13.82
2022-09-01T22:47:26.079Z,13.71
2022-09-01T22:49:54.574Z,13.80
2022-09-01T22:52:21.497Z,13.70
2022-09-01T22:54:49.482Z,13.58
2022-09-01T22:57:16.788Z,13.53
2022-09-01T22:59:44.027Z,13.53
2022-09-01T23:02:10.814Z,13.54
2022-09-01T23:04:38.752Z,13.60
2022-09-01T23:07:06.604Z,13.58
2022-09-01T23:09:33.457Z,13.55
2022-09-01T23:11:59.961Z,13.48
2022-09-01T23:14:27.086Z,13.49
2022-09-01T23:16:53.585Z,13.34
2022-09-01T23:19:22.714Z,13.44
2022-09-01T23:21:51.000Z,13.41
2022-09-01T23:24:19.035Z,13.30
2022-09-01T23:26:47.420Z,13.32
2022-09-01T23:29:13.946Z,13.35
2022-09-01T23:31:41.180Z,13.31
2022-09-01T23:34:08.578Z,13.29
2022-09-01T23:36:36.679Z,13.21
2022-09-01T23:39:04.698Z,13.25
2022-09-01T23:41:33.748Z,13.22
2022-09-01T23:44:03.436Z,13.08
2022-09-01T23:46:37.057Z,13.20
2022-09-01T23:49:04.162Z,13.07
2022-09-01T23:51:30.852Z,13.15
2022-09-01T23:53:57.457Z,13.00
2022-09-01T23:56:27.280Z,13.12
2022-09-01T23:58:54.381Z,13.03
